Time;durP1;ratioP1;P1;durP2;ratioP2;P2;SDS_P1;SDS_P2;PMS_P1;PMS_P2;Temp;Humidity;BMP_temperature;BMP_pressure;BME280_temperature;BME280_humidity;BME280_pressure;Samples;Min_cycle;Max_cycle;Signal;HPM_P1;HPM_P2
2021/07/29 00:00:42;;;;;;;1.38;1.27;;;25.40;66.40;;;;;;5032119;28;20289;-60
2021/07/29 00:03:08;;;;;;;2.17;2.00;;;25.40;66.40;;;;;;5032971;28;20221;-59
2021/07/29 00:05:35;;;;;;;1.40;1.30;;;25.40;66.40;;;;;;5033778;28;20310;-59
2021/07/29 00:08:01;;;;;;;1.42;1.30;;;25.40;66.40;;;;;;5030158;28;20742;-60
2021/07/29 00:10:28;;;;;;;1.50;1.40;;;25.40;66.40;;;;;;5033498;28;20230;-60
2021/07/29 00:12:54;;;;;;;2.03;1.20;;;25.40;66.30;;;;;;5031190;28;20388;-60
2021/07/29 00:15:20;;;;;;;1.33;1.25;;;25.40;66.30;;;;;;5025649;28;20305;-60
2021/07/29 00:20:33;;;;;;;1.50;1.40;;;25.40;66.20;;;;;;5032910;28;20251;-60
2021/07/29 00:22:59;;;;;;;2.10;1.60;;;25.40;66.20;;;;;;5033329;28;20548;-59
2021/07/29 00:25:25;;;;;;;1.23;1.10;;;25.40;66.40;;;;;;5031522;28;20309;-60
2021/07/29 00:27:52;;;;;;;1.38;1.27;;;25.40;66.30;;;;;;5032184;28;20242;-60
2021/07/29 00:30:18;;;;;;;1.42;1.33;;;25.40;66.30;;;;;;5032263;28;20319;-60
2021/07/29 00:32:45;;;;;;;1.52;1.42;;;25.40;66.30;;;;;;5032946;28;20885;-60
2021/07/29 00:35:14;;;;;;;1.42;1.33;;;25.40;66.30;;;;;;5031883;28;20313;-60
2021/07/29 00:37:40;;;;;;;2.17;1.58;;;25.40;66.30;;;;;;5030945;28;20199;-60
2021/07/29 00:40:07;;;;;;;1.40;1.30;;;25.40;66.40;;;;;;5031221;28;20211;-60
2021/07/29 00:42:33;;;;;;;1.40;1.30;;;25.40;66.40;;;;;;5032233;28;20385;-60
2021/07/29 00:44:59;;;;;;;1.50;1.40;;;25.40;66.30;;;;;;5032646;28;20199;-60
2021/07/29 00:47:26;;;;;;;3.08;1.52;;;25.40;66.30;;;;;;5030282;28;20198;-60
2021/07/29 00:49:52;;;;;;;1.30;1.20;;;25.40;66.40;;;;;;5033357;28;20637;-60
2021/07/29 00:52:19;;;;;;;1.50;1.40;;;25.40;66.40;;;;;;5031344;28;20214;-60
2021/07/29 00:54:45;;;;;;;1.30;1.20;;;25.40;66.40;;;;;;5031568;28;20285;-60
2021/07/29 00:57:12;;;;;;;1.50;1.40;;;25.40;66.40;;;;;;5031631;28;20289;-60
2021/07/29 00:59:38;;;;;;;1.35;1.25;;;25.40;66.30;;;;;;5033311;28;20293;-60
2021/07/29 01:02:05;;;;;;;1.40;1.30;;;25.40;66.30;;;;;;5032710;28;20277;-60
2021/07/29 01:04:31;;;;;;;1.70;1.60;;;25.40;66.40;;;;;;5032264;28;20757;-60
2021/07/29 01:06:58;;;;;;;1.38;1.27;;;25.40;66.40;;;;;;5031386;28;20218;-60
2021/07/29 01:09:24;;;;;;;1.15;1.10;;;25.40;66.30;;;;;;5031767;28;20657;-60
2021/07/29 01:11:51;;;;;;;1.48;1.38;;;25.40;66.30;;;;;;5032673;28;20242;-60
2021/07/29 01:14:17;;;;;;;1.50;1.40;;;25.40;66.30;;;;;;5031502;28;20297;-60
2021/07/29 01:16:43;;;;;;;1.60;1.50;;;25.40;66.30;;;;;;5032027;28;20221;-60
2021/07/29 01:19:10;;;;;;;1.50;1.40;;;25.40;66.40;;;;;;5031591;28;20249;-60
2021/07/29 01:21:36;;;;;;;1.98;1.38;;;25.40;66.40;;;;;;5030350;28;20626;-60
2021/07/29 01:24:03;;;;;;;1.55;1.45;;;25.40;66.30;;;;;;5030958;28;20321;-60
2021/07/29 01:26:29;;;;;;;1.27;1.17;;;25.40;66.40;;;;;;5031368;28;20304;-60
2021/07/29 01:28:56;;;;;;;1.25;1.15;;;25.40;66.40;;;;;;5031317;28;20194;-60
2021/07/29 01:31:22;;;;;;;1.50;1.40;;;25.40;66.40;;;;;;5031609;28;20325;-60
2021/07/29 01:33:49;;;;;;;1.23;1.13;;;25.40;66.30;;;;;;5031844;28;20297;-60
2021/07/29 01:36:15;;;;;;;2.20;1.27;;;25.40;66.30;;;;;;5030553;28;20236;-60
2021/07/29 01:38:42;;;;;;;1.77;1.63;;;25.40;66.30;;;;;;5030056;28;20725;-60
2021/07/29 01:41:08;;;;;;;2.15;1.10;;;25.40;66.30;;;;;;5031354;28;20404;-60
2021/07/29 01:43:35;;;;;;;1.08;0.98;;;25.40;66.20;;;;;;5030714;28;20198;-60
2021/07/29 01:46:01;;;;;;;1.48;1.38;;;25.40;66.20;;;;;;5030818;28;20313;-60
2021/07/29 01:48:28;;;;;;;2.13;1.30;;;25.40;66.20;;;;;;5030350;28;20295;-60
2021/07/29 01:50:54;;;;;;;1.65;1.33;;;25.40;66.30;;;;;;5030963;28;20234;-60
2021/07/29 01:53:20;;;;;;;1.20;1.10;;;25.40;66.30;;;;;;5030197;28;20659;-60
2021/07/29 01:55:47;;;;;;;1.40;1.30;;;25.40;66.30;;;;;;5030913;28;20305;-60
2021/07/29 01:58:13;;;;;;;1.60;1.50;;;25.40;66.40;;;;;;5031226;28;20282;-61
2021/07/29 02:00:40;;;;;;;1.65;1.55;;;25.40;66.30;;;;;;5030964;28;20305;-60
2021/07/29 02:03:07;;;;;;;1.60;1.30;;;25.40;66.30;;;;;;5029737;28;20230;-60
2021/07/29 02:05:33;;;;;;;1.45;1.30;;;25.40;66.30;;;;;;5031285;28;20305;-60
2021/07/29 02:08:00;;;;;;;1.38;1.27;;;25.40;66.30;;;;;;5030533;28;20289;-60
2021/07/29 02:10:26;;;;;;;2.35;1.40;;;25.40;66.30;;;;;;5031096;28;20675;-60
2021/07/29 02:12:52;;;;;;;1.30;1.20;;;25.40;66.30;;;;;;5030391;28;20285;-60
2021/07/29 02:15:19;;;;;;;1.38;1.23;;;25.40;66.30;;;;;;5026559;28;20248;-60
2021/07/29 02:17:46;;;;;;;1.58;1.48;;;25.40;66.30;;;;;;5029971;28;20281;-60
2021/07/29 02:20:12;;;;;;;1.15;1.05;;;25.40;66.30;;;;;;5029408;28;20214;-60
2021/07/29 02:22:39;;;;;;;1.20;1.10;;;25.40;66.30;;;;;;5031279;28;20216;-60
2021/07/29 02:25:06;;;;;;;2.05;1.55;;;25.40;66.30;;;;;;5030187;28;20670;-60
2021/07/29 02:27:32;;;;;;;1.63;1.52;;;25.40;66.40;;;;;;5030445;28;20199;-60
2021/07/29 02:29:58;;;;;;;1.30;1.20;;;25.40;66.30;;;;;;5030595;28;20232;-60
2021/07/29 02:32:25;;;;;;;1.45;1.35;;;25.40;66.30;;;;;;5029480;28;20219;-59
2021/07/29 02:34:52;;;;;;;1.40;1.30;;;25.40;66.30;;;;;;5029864;28;20313;-61
2021/07/29 02:37:18;;;;;;;1.42;1.33;;;25.40;66.20;;;;;;5029832;28;20206;-60
2021/07/29 02:39:45;;;;;;;1.40;1.27;;;25.40;66.30;;;;;;5030222;28;20560;-60
2021/07/29 02:42:11;;;;;;;1.80;1.50;;;25.40;66.30;;;;;;5029657;28;20198;-61
2021/07/29 02:44:38;;;;;;;1.33;1.23;;;25.40;66.30;;;;;;5028101;28;20697;-60
2021/07/29 02:47:04;;;;;;;1.40;1.30;;;25.40;66.30;;;;;;5025683;28;20308;-60
2021/07/29 02:49:31;;;;;;;2.13;1.38;;;25.40;66.40;;;;;;5029082;28;20284;-60
2021/07/29 02:51:57;;;;;;;1.38;1.27;;;25.40;66.40;;;;;;5030490;28;20289;-60
2021/07/29 02:54:24;;;;;;;1.58;1.20;;;25.40;66.40;;;;;;5029568;28;20906;-60
2021/07/29 02:56:50;;;;;;;1.55;1.30;;;25.40;66.40;;;;;;5029907;28;20297;-60
2021/07/29 02:59:16;;;;;;;1.70;1.27;;;25.40;66.30;;;;;;5030218;28;20209;-61
2021/07/29 03:01:43;;;;;;;1.10;1.10;;;25.40;66.40;;;;;;5029595;28;20289;-60
2021/07/29 03:04:09;;;;;;;1.30;1.20;;;25.40;66.30;;;;;;5029752;28;20301;-61
2021/07/29 03:06:36;;;;;;;1.17;1.08;;;25.40;66.40;;;;;;5029559;28;20249;-61
2021/07/29 03:09:02;;;;;;;1.65;1.27;;;25.40;66.40;;;;;;5029339;28;20289;-61
2021/07/29 03:11:29;;;;;;;1.50;1.40;;;25.40;66.30;;;;;;5030532;28;20253;-61
2021/07/29 03:13:55;;;;;;;1.38;1.27;;;25.40;66.30;;;;;;5028373;28;20301;-61
2021/07/29 03:16:22;;;;;;;1.33;1.23;;;25.40;66.30;;;;;;5030159;28;20305;-62
2021/07/29 03:18:48;;;;;;;1.50;1.40;;;25.40;66.40;;;;;;5029375;28;20709;-61
2021/07/29 03:21:15;;;;;;;1.42;1.33;;;25.40;66.40;;;;;;5030869;28;20301;-61
2021/07/29 03:23:41;;;;;;;1.05;1.00;;;25.40;66.40;;;;;;5028668;28;20293;-60
2021/07/29 03:26:07;;;;;;;1.42;1.33;;;25.40;67.10;;;;;;5028066;28;20305;-61
2021/07/29 03:28:34;;;;;;;1.33;1.23;;;25.40;66.50;;;;;;5029961;28;20609;-60
2021/07/29 03:31:01;;;;;;;1.40;1.30;;;25.40;66.50;;;;;;5029380;28;20325;-60
2021/07/29 03:33:27;;;;;;;2.45;1.42;;;25.40;66.60;;;;;;5029818;28;20268;-61
2021/07/29 03:35:54;;;;;;;1.67;1.50;;;25.40;66.60;;;;;;5028907;28;20309;-61
2021/07/29 03:38:21;;;;;;;1.50;1.40;;;25.40;66.50;;;;;;5029888;28;20297;-60
2021/07/29 03:40:47;;;;;;;1.58;1.48;;;25.40;66.60;;;;;;5028712;28;20634;-60
2021/07/29 03:43:14;;;;;;;1.30;1.20;;;25.40;66.60;;;;;;5027236;28;20198;-60
2021/07/29 03:45:43;;;;;;;1.42;1.33;;;25.40;66.50;;;;;;5028504;28;20301;-60
2021/07/29 03:48:09;;;;;;;2.30;1.35;;;25.40;66.50;;;;;;5029506;28;20508;-60
2021/07/29 03:50:36;;;;;;;1.30;1.20;;;25.40;66.50;;;;;;5030211;28;20305;-61
2021/07/29 03:53:02;;;;;;;1.42;1.33;;;25.40;66.60;;;;;;5029565;28;20306;-60
2021/07/29 03:55:29;;;;;;;1.30;1.20;;;25.40;66.50;;;;;;5029794;28;20226;-61
2021/07/29 03:57:55;;;;;;;1.52;1.30;;;25.40;66.50;;;;;;5024580;28;20330;-60
2021/07/29 04:00:22;;;;;;;1.30;1.20;;;25.40;66.50;;;;;;5029488;28;20289;-60
2021/07/29 04:02:48;;;;;;;1.58;1.35;;;25.40;66.60;;;;;;5029176;28;20305;-60
2021/07/29 04:05:15;;;;;;;1.55;1.38;;;25.40;66.50;;;;;;5030390;28;20245;-60
2021/07/29 04:07:41;;;;;;;2.10;1.30;;;25.40;66.50;;;;;;5029237;28;20203;-61
2021/07/29 04:10:07;;;;;;;1.55;1.45;;;25.40;66.50;;;;;;5027185;28;20222;-60
2021/07/29 04:12:34;;;;;;;1.33;1.20;;;25.40;66.50;;;;;;5029310;28;20293;-61
2021/07/29 04:15:00;;;;;;;1.50;1.27;;;25.40;66.50;;;;;;5028490;28;20833;-61
2021/07/29 04:17:27;;;;;;;1.23;1.13;;;25.40;66.50;;;;;;5025136;28;20282;-61
2021/07/29 04:19:54;;;;;;;1.30;1.20;;;25.40;66.50;;;;;;5028487;28;20293;-60
2021/07/29 04:22:20;;;;;;;1.40;1.30;;;25.40;66.50;;;;;;5019223;28;20233;-60
2021/07/29 04:24:47;;;;;;;1.67;1.30;;;25.40;66.50;;;;;;5028198;28;20758;-60
2021/07/29 04:27:13;;;;;;;1.40;1.30;;;25.40;66.60;;;;;;5030560;28;20230;-60
2021/07/29 04:29:40;;;;;;;1.23;1.13;;;25.40;66.50;;;;;;5033509;28;20210;-60
2021/07/29 04:32:06;;;;;;;1.30;1.20;;;25.40;66.50;;;;;;5022322;28;20308;-60
2021/07/29 04:34:33;;;;;;;2.70;1.40;;;25.40;66.50;;;;;;5032746;28;20309;-60
2021/07/29 04:36:59;;;;;;;1.63;1.38;;;25.40;66.50;;;;;;5031853;28;20199;-60
2021/07/29 04:39:27;;;;;;;1.55;1.35;;;25.40;66.50;;;;;;5032936;28;20290;-60
2021/07/29 04:41:54;;;;;;;1.58;1.17;;;25.40;66.50;;;;;;5031024;28;20570;-60
2021/07/29 04:44:20;;;;;;;1.35;1.25;;;25.40;66.50;;;;;;5032460;28;20302;-60
2021/07/29 04:46:47;;;;;;;1.33;1.23;;;25.40;66.50;;;;;;5031407;28;20230;-60
2021/07/29 04:49:18;;;;;;;1.50;1.40;;;25.40;66.50;;;;;;5032493;28;20234;-60
2021/07/29 04:51:46;;;;;;;1.35;1.25;;;25.40;66.50;;;;;;5031463;28;20237;-60
2021/07/29 04:54:12;;;;;;;1.52;1.40;;;25.40;66.50;;;;;;5032545;28;20694;-60
2021/07/29 04:56:39;;;;;;;2.10;1.60;;;25.40;66.40;;;;;;5031300;28;20599;-60
2021/07/29 04:59:05;;;;;;;3.22;1.30;;;25.40;66.50;;;;;;5032379;28;20281;-60
2021/07/29 05:01:32;;;;;;;1.50;1.08;;;25.40;66.50;;;;;;5030210;28;20237;-60
2021/07/29 05:03:58;;;;;;;1.15;1.05;;;25.40;66.50;;;;;;5030299;28;20221;-60
2021/07/29 05:06:25;;;;;;;2.78;1.33;;;25.40;66.50;;;;;;5032608;28;20292;-60
2021/07/29 05:08:51;;;;;;;3.22;1.30;;;25.40;66.40;;;;;;5031825;28;20585;-60
2021/07/29 05:11:18;;;;;;;1.42;1.33;;;25.40;66.50;;;;;;5032604;28;20317;-60
2021/07/29 05:13:44;;;;;;;1.40;1.30;;;25.40;66.50;;;;;;5030883;28;20253;-60
2021/07/29 05:16:11;;;;;;;1.20;1.10;;;25.40;66.50;;;;;;5032101;28;20285;-60
2021/07/29 05:18:40;;;;;;;1.45;1.35;;;25.40;66.50;;;;;;5031784;28;20252;-60
2021/07/29 05:21:07;;;;;;;1.95;1.02;;;25.40;66.50;;;;;;5032171;28;20225;-60
2021/07/29 05:23:33;;;;;;;2.35;1.35;;;25.40;66.50;;;;;;5030907;28;20565;-59
2021/07/29 05:26:00;;;;;;;1.17;1.08;;;25.40;66.50;;;;;;5029480;28;20281;-61
2021/07/29 05:28:26;;;;;;;1.75;1.20;;;25.40;66.50;;;;;;5027402;28;20206;-59
2021/07/29 05:30:52;;;;;;;1.60;1.20;;;25.40;66.40;;;;;;5028982;28;20257;-59
2021/07/29 05:33:19;;;;;;;1.55;1.30;;;25.40;66.50;;;;;;5029555;28;20289;-59
2021/07/29 05:35:45;;;;;;;1.35;1.25;;;25.40;66.70;;;;;;5030894;28;20293;-59
2021/07/29 05:38:12;;;;;;;1.40;1.20;;;25.40;66.70;;;;;;5032340;28;20198;-64
2021/07/29 05:40:38;;;;;;;2.03;1.63;;;25.40;66.90;;;;;;5031170;28;20699;-58
2021/07/29 05:43:05;;;;;;;1.60;1.30;;;25.40;66.90;;;;;;5022887;28;20194;-58
2021/07/29 05:45:32;;;;;;;1.90;1.38;;;25.40;67.00;;;;;;5030910;28;20305;-60
2021/07/29 05:47:59;;;;;;;2.92;1.10;;;25.40;66.90;;;;;;5030696;28;20209;-62
2021/07/29 05:50:25;;;;;;;1.48;1.20;;;25.40;67.00;;;;;;5031608;28;20285;-61
2021/07/29 05:52:52;;;;;;;1.27;1.17;;;25.40;67.00;;;;;;5028306;28;20298;-63
2021/07/29 05:55:20;;;;;;;4.10;1.63;;;25.40;66.90;;;;;;5026070;28;20230;-64
2021/07/29 05:57:46;;;;;;;5.07;1.90;;;25.40;66.90;;;;;;5026899;28;20256;-65
2021/07/29 06:00:13;;;;;;;3.75;1.73;;;25.10;64.90;;;;;;5029808;28;20225;-67
2021/07/29 06:02:39;;;;;;;2.28;2.08;;;25.00;63.50;;;;;;5029006;28;20726;-63
2021/07/29 06:05:06;;;;;;;3.22;1.98;;;24.80;62.40;;;;;;5030738;28;20711;-65
2021/07/29 06:07:33;;;;;;;4.25;2.58;;;24.60;62.90;;;;;;5029335;28;20293;-65
2021/07/29 06:10:00;;;;;;;3.63;1.70;;;24.70;63.20;;;;;;5029411;28;20203;-65
2021/07/29 06:12:27;;;;;;;3.03;1.90;;;24.90;63.40;;;;;;5029142;28;20240;-66
2021/07/29 06:14:54;;;;;;;4.35;2.15;;;25.10;63.20;;;;;;5026552;28;20218;-65
2021/07/29 06:17:23;;;;;;;2.70;2.00;;;25.10;63.10;;;;;;5031083;28;20203;-64
2021/07/29 06:19:50;;;;;;;2.28;1.90;;;25.20;63.30;;;;;;5027380;28;20215;-65
2021/07/29 06:22:16;;;;;;;2.08;1.80;;;25.20;63.50;;;;;;5018826;28;20260;-64
2021/07/29 06:24:43;;;;;;;2.20;1.80;;;25.20;63.70;;;;;;5030229;28;20292;-65
2021/07/29 06:27:09;;;;;;;2.53;1.80;;;25.30;63.90;;;;;;5027094;28;20213;-74
2021/07/29 06:29:36;;;;;;;3.25;2.13;;;25.30;64.00;;;;;;5022665;28;20686;-63
2021/07/29 06:32:02;;;;;;;4.18;2.00;;;25.30;64.60;;;;;;5027959;28;20629;-64
2021/07/29 06:34:29;;;;;;;2.05;1.90;;;25.30;64.60;;;;;;5027678;28;20313;-63
2021/07/29 06:36:55;;;;;;;1.88;1.73;;;25.30;64.70;;;;;;5028075;28;20257;-64
2021/07/29 06:39:22;;;;;;;1.95;1.55;;;25.40;64.80;;;;;;5031188;28;20318;-63
2021/07/29 06:41:48;;;;;;;4.18;1.92;;;25.40;64.80;;;;;;5031866;28;20294;-66
2021/07/29 06:44:14;;;;;;;2.55;1.80;;;25.40;65.00;;;;;;5028830;28;20729;-71
2021/07/29 06:46:41;;;;;;;5.57;2.10;;;25.40;65.10;;;;;;5026903;28;20711;-67
2021/07/29 06:49:07;;;;;;;10.30;1.92;;;25.40;65.40;;;;;;5029017;28;20226;-64
2021/07/29 06:51:34;;;;;;;4.15;1.90;;;25.40;65.40;;;;;;5027842;28;20233;-66
2021/07/29 06:54:00;;;;;;;2.95;1.67;;;25.40;65.30;;;;;;5029360;28;20312;-64
2021/07/29 06:56:27;;;;;;;2.17;1.70;;;25.50;65.40;;;;;;5029122;28;20678;-68
2021/07/29 06:58:54;;;;;;;2.88;1.77;;;25.50;65.80;;;;;;5031326;28;20285;-71
2021/07/29 07:01:20;;;;;;;2.35;1.50;;;25.50;66.30;;;;;;5024052;28;20211;-71
2021/07/29 07:03:48;;;;;;;2.70;1.80;;;25.50;66.00;;;;;;5026175;28;20237;-63
2021/07/29 07:06:14;;;;;;;2.70;2.00;;;25.60;66.30;;;;;;5026357;28;20289;-71
2021/07/29 07:08:40;;;;;;;1.52;1.42;;;25.50;66.60;;;;;;5028404;28;20293;-59
2021/07/29 07:11:10;;;;;;;5.43;1.70;;;25.50;66.40;;;;;;5029559;28;20331;-68
2021/07/29 07:13:36;;;;;;;3.10;1.70;;;25.50;66.90;;;;;;5025902;28;20232;-65
2021/07/29 07:16:03;;;;;;;3.22;1.85;;;25.50;66.70;;;;;;5024183;28;20614;-57
2021/07/29 07:18:29;;;;;;;4.00;1.85;;;25.50;67.00;;;;;;5025054;28;20310;-61
2021/07/29 07:20:56;;;;;;;5.03;2.20;;;25.50;67.10;;;;;;5026102;28;20285;-61
2021/07/29 07:23:22;;;;;;;4.03;1.90;;;25.60;67.00;;;;;;5023586;28;20317;-59
2021/07/29 07:25:49;;;;;;;4.20;2.00;;;25.60;66.70;;;;;;5027637;28;20234;-60
2021/07/29 07:28:15;;;;;;;2.63;1.70;;;25.60;66.60;;;;;;5027307;28;20206;-61
2021/07/29 07:30:42;;;;;;;2.00;1.60;;;25.60;66.30;;;;;;5028925;28;20210;-59
2021/07/29 07:33:08;;;;;;;3.08;1.60;;;25.50;65.90;;;;;;5030075;28;20225;-61
2021/07/29 07:35:35;;;;;;;2.20;1.67;;;25.60;65.90;;;;;;5029118;28;20567;-61
2021/07/29 07:38:01;;;;;;;4.57;1.95;;;25.60;66.30;;;;;;5026227;28;20293;-59
2021/07/29 07:40:28;;;;;;;9.98;2.40;;;25.60;67.20;;;;;;5028708;28;20205;-60
2021/07/29 07:42:55;;;;;;;3.53;1.95;;;25.60;67.10;;;;;;5029445;28;20203;-58
2021/07/29 07:45:22;;;;;;;4.00;1.63;;;25.60;66.90;;;;;;5029909;28;20211;-62
2021/07/29 07:47:48;;;;;;;4.88;1.80;;;25.60;67.10;;;;;;5026766;28;20300;-59
2021/07/29 07:50:15;;;;;;;3.63;1.83;;;25.60;67.40;;;;;;5028646;28;20203;-60
2021/07/29 07:52:41;;;;;;;2.60;2.05;;;25.60;67.00;;;;;;5029534;28;20677;-72
2021/07/29 07:55:08;;;;;;;1.92;1.80;;;25.60;66.70;;;;;;5029355;28;20289;-61
2021/07/29 07:57:34;;;;;;;1.88;1.70;;;25.60;66.80;;;;;;5027981;28;20285;-59
2021/07/29 08:00:01;;;;;;;4.57;1.80;;;25.60;66.80;;;;;;5028922;28;20297;-66
2021/07/29 08:02:27;;;;;;;4.80;2.05;;;25.60;67.20;;;;;;5032108;28;20293;-59
2021/07/29 08:04:54;;;;;;;3.25;1.80;;;25.70;67.90;;;;;;5033236;28;20250;-62
2021/07/29 08:07:20;;;;;;;3.42;1.67;;;25.60;68.00;;;;;;5031375;28;20210;-62
2021/07/29 08:09:46;;;;;;;2.22;1.40;;;25.70;67.40;;;;;;5033083;28;20590;-62
2021/07/29 08:12:13;;;;;;;3.47;1.67;;;25.70;67.40;;;;;;5031453;28;20236;-63
2021/07/29 08:14:39;;;;;;;3.47;1.80;;;25.70;67.10;;;;;;5033029;28;20312;-63
2021/07/29 08:17:06;;;;;;;2.35;1.70;;;25.70;67.40;;;;;;5031620;28;20289;-61
2021/07/29 08:19:32;;;;;;;3.38;1.70;;;25.70;67.10;;;;;;5032085;28;20269;-63
2021/07/29 08:21:59;;;;;;;1.85;1.42;;;25.70;68.10;;;;;;5032242;28;20206;-61
2021/07/29 08:24:25;;;;;;;3.25;1.85;;;25.70;68.80;;;;;;5021280;28;20730;-61
2021/07/29 08:26:52;;;;;;;2.42;1.50;;;25.70;68.50;;;;;;5028593;28;20575;-62
2021/07/29 08:29:18;;;;;;;1.70;1.50;;;25.70;67.90;;;;;;5030129;28;20668;-60
2021/07/29 08:31:45;;;;;;;3.60;2.15;;;25.70;67.40;;;;;;5032632;28;20317;-63
2021/07/29 08:34:11;;;;;;;1.70;1.60;;;25.70;67.30;;;;;;5031732;28;20226;-62
2021/07/29 08:36:38;;;;;;;3.20;1.75;;;25.70;67.10;;;;;;5029816;28;20662;-63
2021/07/29 08:39:04;;;;;;;5.13;2.05;;;25.70;68.40;;;;;;5029665;28;20285;-64
2021/07/29 08:41:31;;;;;;;3.10;1.88;;;25.80;67.90;;;;;;5031300;28;20208;-60
2021/07/29 08:43:57;;;;;;;2.00;1.40;;;25.70;67.60;;;;;;5032093;28;20764;-64
2021/07/29 08:46:24;;;;;;;2.28;1.60;;;25.80;67.50;;;;;;5029465;28;20299;-66
2021/07/29 08:48:50;;;;;;;2.65;1.75;;;25.80;67.40;;;;;;5030537;28;20225;-63
2021/07/29 08:51:17;;;;;;;2.20;2.00;;;25.80;68.10;;;;;;5029610;28;20745;-60
2021/07/29 08:53:43;;;;;;;3.30;1.63;;;25.80;69.20;;;;;;5029266;28;20230;-58
2021/07/29 08:56:10;;;;;;;2.35;1.90;;;25.80;68.30;;;;;;5029987;28;20203;-59
2021/07/29 08:58:36;;;;;;;2.58;1.55;;;25.80;68.00;;;;;;5030615;28;20235;-60
2021/07/29 09:01:04;;;;;;;4.78;2.22;;;25.80;67.60;;;;;;5031158;28;20198;-61
2021/07/29 09:03:31;;;;;;;2.97;1.70;;;25.80;67.20;;;;;;5027153;28;20242;-62
2021/07/29 09:05:57;;;;;;;1.98;1.77;;;25.80;66.90;;;;;;5029294;28;20198;-61
2021/07/29 09:08:24;;;;;;;2.67;1.80;;;25.80;66.90;;;;;;5030244;28;20306;-59
2021/07/29 09:10:50;;;;;;;2.92;2.50;;;25.80;65.80;;;;;;5022459;28;20298;-59
2021/07/29 09:13:17;;;;;;;3.08;2.45;;;25.80;65.10;;;;;;5022263;28;20345;-58
2021/07/29 09:15:44;;;;;;;3.35;2.38;;;25.80;64.80;;;;;;5032095;28;20206;-60
2021/07/29 09:18:10;;;;;;;2.95;2.53;;;25.70;63.30;;;;;;5031151;28;20234;-59
2021/07/29 09:20:37;;;;;;;2.58;2.38;;;25.80;63.10;;;;;;5032227;28;20302;-60
2021/07/29 09:23:04;;;;;;;2.50;2.30;;;25.80;63.10;;;;;;5029996;28;20247;-59
2021/07/29 09:25:30;;;;;;;4.05;2.63;;;25.80;63.10;;;;;;5031457;28;20286;-58
2021/07/29 09:27:58;;;;;;;2.60;2.40;;;25.80;62.90;;;;;;5030920;28;20323;-59
2021/07/29 09:30:24;;;;;;;3.65;2.80;;;25.80;62.50;;;;;;5031482;28;20280;-61
2021/07/29 09:32:51;;;;;;;3.40;2.35;;;25.80;62.40;;;;;;5029147;28;20345;-59
2021/07/29 09:35:17;;;;;;;2.70;2.50;;;25.80;62.20;;;;;;5030348;28;20289;-61
2021/07/29 09:37:44;;;;;;;3.20;2.53;;;25.80;62.20;;;;;;5028770;28;20290;-61
2021/07/29 09:40:10;;;;;;;3.10;2.58;;;25.80;62.40;;;;;;5030310;28;20305;-61
2021/07/29 09:42:37;;;;;;;3.72;2.75;;;25.80;62.50;;;;;;5022928;28;20305;-60
2021/07/29 09:45:07;;;;;;;2.88;2.50;;;25.80;62.20;;;;;;5028301;28;20618;-60
2021/07/29 09:47:35;;;;;;;2.78;2.47;;;25.80;62.20;;;;;;5018594;28;20302;-60
2021/07/29 09:50:02;;;;;;;4.35;2.75;;;25.80;62.50;;;;;;5019321;28;20289;-61
2021/07/29 09:52:29;;;;;;;3.35;2.63;;;25.80;62.20;;;;;;5030854;28;20238;-59
2021/07/29 09:54:55;;;;;;;2.92;2.72;;;25.80;62.20;;;;;;5031404;28;20289;-59
2021/07/29 09:57:21;;;;;;;3.03;2.72;;;25.80;62.00;;;;;;5031605;28;20285;-62
2021/07/29 09:59:48;;;;;;;3.33;2.95;;;25.80;61.60;;;;;;5023426;28;20230;-61
2021/07/29 10:02:14;;;;;;;3.25;2.95;;;25.80;61.10;;;;;;5023193;28;20751;-59
2021/07/29 10:04:41;;;;;;;3.92;2.78;;;25.80;60.60;;;;;;5028876;28;20226;-62
2021/07/29 10:07:07;;;;;;;3.00;2.80;;;25.80;61.10;;;;;;5031224;28;20285;-60
2021/07/29 10:09:34;;;;;;;3.20;3.00;;;25.80;60.90;;;;;;5026946;28;20199;-61
2021/07/29 10:12:00;;;;;;;2.97;2.63;;;25.80;60.60;;;;;;5030836;28;20329;-64
2021/07/29 10:14:27;;;;;;;3.03;2.75;;;25.80;60.60;;;;;;5015779;28;20213;-59
2021/07/29 10:16:53;;;;;;;3.17;2.88;;;25.80;60.80;;;;;;5022178;28;20663;-59
2021/07/29 10:19:21;;;;;;;3.30;3.00;;;25.80;60.90;;;;;;5019034;28;20763;-60
2021/07/29 10:21:47;;;;;;;3.67;3.38;;;25.80;60.80;;;;;;5011967;28;20199;-61
2021/07/29 10:24:14;;;;;;;2.97;2.78;;;25.80;61.00;;;;;;5021456;28;20654;-61
2021/07/29 10:26:40;;;;;;;2.75;2.55;;;25.80;60.90;;;;;;5030577;28;20214;-61
2021/07/29 10:29:07;;;;;;;3.50;3.20;;;25.80;60.90;;;;;;5030610;28;20293;-61
2021/07/29 10:31:33;;;;;;;3.92;3.25;;;25.80;60.90;;;;;;5019024;28;20638;-59
2021/07/29 10:34:00;;;;;;;3.60;3.30;;;25.80;60.80;;;;;;5013787;28;20306;-59
2021/07/29 10:36:26;;;;;;;3.40;3.10;;;25.80;60.70;;;;;;5029411;28;20797;-62
2021/07/29 10:38:53;;;;;;;3.55;3.25;;;25.80;61.10;;;;;;5027999;28;20277;-59
2021/07/29 10:41:19;;;;;;;3.22;2.83;;;25.80;61.50;;;;;;5025334;28;20202;-59
2021/07/29 10:43:46;;;;;;;2.85;2.65;;;25.90;61.90;;;;;;5019450;28;20313;-59
2021/07/29 10:46:12;;;;;;;3.33;2.90;;;25.80;61.90;;;;;;5030292;28;20658;-59
2021/07/29 10:48:39;;;;;;;4.45;3.28;;;25.80;62.00;;;;;;5016374;28;20562;-60
2021/07/29 10:51:05;;;;;;;3.45;2.83;;;25.80;62.30;;;;;;5029106;28;20290;-59
2021/07/29 10:53:31;;;;;;;3.88;2.90;;;25.80;62.40;;;;;;5028565;28;20238;-59
2021/07/29 10:55:58;;;;;;;4.13;3.58;;;25.80;61.90;;;;;;5029248;28;20302;-60
2021/07/29 10:58:24;;;;;;;3.45;3.15;;;25.80;60.90;;;;;;5028688;28;20293;-60
2021/07/29 11:00:51;;;;;;;3.50;3.20;;;25.80;61.10;;;;;;5031259;28;20276;-60
2021/07/29 11:03:19;;;;;;;3.67;3.35;;;25.80;61.10;;;;;;5029357;28;20309;-60
2021/07/29 11:05:52;;;;;;;4.00;3.55;;;25.80;61.70;;;;;;5029288;28;20285;-60
2021/07/29 11:08:19;;;;;;;10.52;7.80;;;25.80;62.10;;;;;;5029273;28;20260;-60
2021/07/29 11:10:45;;;;;;;18.95;11.75;;;25.90;62.60;;;;;;5027156;28;20246;-60
2021/07/29 11:13:12;;;;;;;14.02;9.20;;;25.80;61.70;;;;;;5026507;28;20321;-60
2021/07/29 11:15:39;;;;;;;17.75;10.73;;;25.80;62.20;;;;;;5028600;28;20293;-60
2021/07/29 11:18:05;;;;;;;29.92;18.80;;;25.90;62.80;;;;;;5031301;28;20233;-60
2021/07/29 11:20:32;;;;;;;32.75;19.08;;;25.80;62.90;;;;;;5044468;22;20229;-66
2021/07/29 11:22:58;;;;;;;28.83;19.08;;;25.90;63.20;;;;;;5026104;28;20222;-67
2021/07/29 11:25:24;;;;;;;35.95;20.00;;;25.90;63.20;;;;;;5023908;28;20203;-66
2021/07/29 11:27:51;;;;;;;31.08;19.90;;;25.90;63.20;;;;;;5030731;28;20204;-66
2021/07/29 11:30:17;;;;;;;31.67;20.33;;;25.90;63.20;;;;;;5025965;28;20293;-66
2021/07/29 11:32:45;;;;;;;33.17;22.20;;;25.90;63.20;;;;;;5035451;28;20659;-66
2021/07/29 11:35:11;;;;;;;30.75;19.73;;;25.90;63.20;;;;;;5027956;28;20790;-66
2021/07/29 11:37:37;;;;;;;34.38;21.08;;;25.90;63.20;;;;;;5027613;28;20241;-66
2021/07/29 11:40:04;;;;;;;31.42;19.70;;;25.90;63.20;;;;;;5032856;28;20249;-66
2021/07/29 11:42:30;;;;;;;29.38;18.75;;;25.90;63.20;;;;;;5031038;28;20785;-66
2021/07/29 11:44:57;;;;;;;27.75;19.08;;;25.90;63.20;;;;;;5033867;28;20294;-68
2021/07/29 11:47:25;;;;;;;29.38;17.80;;;25.90;63.30;;;;;;5034424;28;20286;-66
2021/07/29 11:49:52;;;;;;;31.23;18.35;;;25.90;63.20;;;;;;5034465;28;20203;-65
2021/07/29 11:52:18;;;;;;;28.55;16.48;;;25.80;63.20;;;;;;5026772;28;20241;-66
2021/07/29 11:54:45;;;;;;;24.73;15.95;;;25.80;63.10;;;;;;5029111;28;20221;-66
2021/07/29 11:57:12;;;;;;;20.83;14.52;;;25.80;63.10;;;;;;5028447;28;20218;-65
2021/07/29 11:59:38;;;;;;;22.48;14.27;;;25.90;63.20;;;;;;5033100;28;21961;-66
2021/07/29 12:02:05;;;;;;;24.95;13.40;;;25.80;63.80;;;;;;5030502;28;20301;-68
2021/07/29 12:04:32;;;;;;;20.50;13.57;;;25.80;63.10;;;;;;5028796;28;20207;-68
2021/07/29 12:06:58;;;;;;;19.70;13.32;;;25.80;63.10;;;;;;5030333;28;20234;-67
2021/07/29 12:09:25;;;;;;;16.70;11.43;;;25.80;63.10;;;;;;5031541;28;20217;-67
2021/07/29 12:11:51;;;;;;;17.48;10.25;;;25.80;62.90;;;;;;5022899;28;21061;-67
2021/07/29 12:14:18;;;;;;;17.17;9.95;;;25.90;62.60;;;;;;5028514;28;20317;-67
2021/07/29 12:16:45;;;;;;;16.13;10.60;;;25.80;62.20;;;;;;5022705;28;20199;-67
2021/07/29 12:19:11;;;;;;;15.88;10.35;;;25.90;62.40;;;;;;5029751;28;20202;-67
2021/07/29 12:21:37;;;;;;;16.60;9.52;;;25.80;62.20;;;;;;5030655;28;20732;-67
2021/07/29 12:24:04;;;;;;;13.88;8.82;;;25.80;61.80;;;;;;5029066;28;20370;-67
2021/07/29 12:26:30;;;;;;;13.15;8.45;;;25.80;61.50;;;;;;5028268;28;20285;-67
2021/07/29 12:28:57;;;;;;;12.48;8.35;;;25.80;61.70;;;;;;5030679;28;20289;-67
2021/07/29 12:31:23;;;;;;;13.73;9.43;;;25.80;62.00;;;;;;5030212;28;20222;-67
2021/07/29 12:33:50;;;;;;;10.57;6.93;;;25.80;61.70;;;;;;5032946;28;20273;-68
2021/07/29 12:36:17;;;;;;;10.52;7.25;;;25.80;61.10;;;;;;5030488;28;20565;-67
2021/07/29 12:38:44;;;;;;;10.45;7.07;;;25.80;61.10;;;;;;5030458;28;20201;-67
2021/07/29 12:41:10;;;;;;;9.35;7.10;;;25.80;61.30;;;;;;5023093;28;20215;-67
2021/07/29 12:43:37;;;;;;;9.88;6.68;;;25.90;61.50;;;;;;5029993;28;20206;-68